Time;durP1;ratioP1;P1;durP2;ratioP2;P2;SDS_P1;SDS_P2;PMS_P1;PMS_P2;Temp;Humidity;BMP_temperature;BMP_pressure;BME280_temperature;BME280_humidity;BME280_pressure;Samples;Min_cycle;Max_cycle;Signal;HPM_P1;HPM_P2
2021/11/04 00:02:02;;;;;;;;;19.00;14.50;;;;;15.97;94.75;100156.19;5018404;28;45728;-81
2021/11/04 00:04:27;;;;;;;;;19.00;12.50;;;;;15.91;95.92;100158.63;5036777;28;46354;-81
2021/11/04 00:06:54;;;;;;;;;19.25;15.25;;;;;15.79;96.48;100158.00;5020734;28;45407;-80
2021/11/04 00:09:19;;;;;;;;;9.25;9.25;;;;;15.85;95.28;100154.72;5021248;28;45588;-80
2021/11/04 00:11:45;;;;;;;;;19.50;14.75;;;;;15.86;95.61;100155.56;5021728;28;45503;-81
2021/11/04 00:14:10;;;;;;;;;18.00;15.25;;;;;15.89;96.36;100152.59;5051813;28;45404;-79
2021/11/04 00:16:36;;;;;;;;;19.00;15.75;;;;;15.90;95.78;100154.28;5014229;28;45388;-79
2021/11/04 00:19:02;;;;;;;;;14.50;14.00;;;;;15.80;96.36;100151.69;5028034;28;45441;-80
2021/11/04 00:21:27;;;;;;;;;20.00;15.75;;;;;15.77;96.36;100148.47;5025687;28;45531;-80
2021/11/04 00:23:52;;;;;;;;;15.50;14.75;;;;;15.79;97.02;100144.69;5032915;28;45451;-80
2021/11/04 00:26:18;;;;;;;;;20.50;15.25;;;;;15.77;97.74;100148.47;5040791;28;45183;-80
2021/11/04 00:28:43;;;;;;;;;23.50;16.50;;;;;15.63;97.46;100144.53;5057705;28;45400;-80
2021/11/04 00:31:09;;;;;;;;;16.75;14.75;;;;;15.61;97.77;100139.34;5052988;28;45209;-80
2021/11/04 00:33:36;;;;;;;;;16.75;16.50;;;;;15.65;98.43;100146.06;5047463;28;46266;-79
2021/11/04 00:36:02;;;;;;;;;19.50;17.00;;;;;15.51;99.54;100141.19;5072007;28;45219;-79
2021/11/04 00:38:28;;;;;;;;;18.25;13.50;;;;;15.54;98.55;100146.28;5060609;28;44774;-78
2021/11/04 00:40:55;;;;;;;;;19.25;14.25;;;;;15.50;99.56;100144.84;5061112;28;45416;-79
2021/11/04 00:43:20;;;;;;;;;15.00;14.00;;;;;15.31;100.00;100152.94;5059150;28;45457;-80
2021/11/04 00:45:46;;;;;;;;;18.50;16.50;;;;;15.44;100.00;100149.94;5062529;28;45457;-80
2021/11/04 00:48:11;;;;;;;;;20.00;12.25;;;;;15.36;100.00;100156.00;5058984;28;45543;-80
2021/11/04 00:50:37;;;;;;;;;15.00;15.00;;;;;15.45;100.00;100163.09;5058794;28;45551;-79
2021/11/04 00:53:02;;;;;;;;;22.50;15.00;;;;;15.43;100.00;100167.72;5060283;28;45937;-80
2021/11/04 00:55:28;;;;;;;;;21.50;14.00;;;;;15.52;100.00;100169.50;5061770;28;45722;-79
2021/11/04 00:57:53;;;;;;;;;20.25;15.25;;;;;15.51;100.00;100175.78;5043686;28;45489;-80
2021/11/04 01:00:19;;;;;;;;;17.50;14.00;;;;;15.52;100.00;100169.50;5058921;28;45288;-80
2021/11/04 01:02:44;;;;;;;;;17.50;14.50;;;;;15.57;100.00;100172.56;5047286;28;45316;-80
2021/11/04 01:05:10;;;;;;;;;17.75;13.75;;;;;15.56;100.00;100168.25;5050077;28;45496;-81
2021/11/04 01:07:36;;;;;;;;;18.75;14.75;;;;;15.53;100.00;100165.84;5059406;28;45431;-80
2021/11/04 01:10:02;;;;;;;;;15.50;13.25;;;;;15.55;100.00;100155.09;5037887;28;45678;-80
2021/11/04 01:12:27;;;;;;;;;19.25;17.25;;;;;15.63;100.00;100156.00;5057767;28;45445;-80
2021/11/04 01:14:53;;;;;;;;;20.25;17.50;;;;;15.67;99.86;100160.03;5055036;28;45506;-80
2021/11/04 01:17:18;;;;;;;;;13.75;13.75;;;;;15.62;100.00;100159.66;5058412;28;45320;-80
2021/11/04 01:19:44;;;;;;;;;16.50;13.50;;;;;15.52;100.00;100158.84;5060282;28;45637;-80
2021/11/04 01:22:09;;;;;;;;;20.75;13.25;;;;;15.46;100.00;100163.94;5036118;28;47875;-80
2021/11/04 01:24:35;;;;;;;;;15.75;12.00;;;;;15.40;100.00;100161.84;5032331;28;45388;-80
2021/11/04 01:27:01;;;;;;;;;19.25;14.00;;;;;15.37;100.00;100154.19;5034337;28;45941;-80
2021/11/04 01:29:27;;;;;;;;;12.50;12.50;;;;;15.34;100.00;100164.13;5057538;28;45422;-80
2021/11/04 01:31:52;;;;;;;;;15.75;13.00;;;;;15.31;100.00;100163.56;5050044;28;45529;-80
2021/11/04 01:34:17;;;;;;;;;20.25;14.75;;;;;15.29;100.00;100157.59;5056596;28;45360;-81
2021/11/04 01:36:43;;;;;;;;;15.50;12.75;;;;;15.22;100.00;100167.13;5041346;28;45484;-80
2021/11/04 01:39:08;;;;;;;;;17.25;13.50;;;;;15.11;100.00;100175.31;5030534;28;45759;-80
2021/11/04 01:41:34;;;;;;;;;17.75;14.75;;;;;15.12;100.00;100164.50;5039638;28;48115;-80
2021/11/04 01:44:00;;;;;;;;;21.75;15.00;;;;;15.11;100.00;100162.84;5054389;28;45189;-80
2021/11/04 01:46:26;;;;;;;;;16.50;15.50;;;;;15.03;100.00;100172.53;5060064;28;45488;-80
2021/11/04 01:48:51;;;;;;;;;14.75;13.00;;;;;15.02;100.00;100176.19;5059421;28;45448;-80
2021/11/04 01:51:18;;;;;;;;;13.50;12.00;;;;;14.94;100.00;100166.25;5059520;28;45373;-80
2021/11/04 01:53:44;;;;;;;;;19.25;13.50;;;;;14.96;100.00;100162.47;5052446;28;45254;-80
2021/11/04 01:56:10;;;;;;;;;16.50;13.00;;;;;15.20;100.00;100161.13;5033854;28;45428;-80
2021/11/04 01:58:35;;;;;;;;;15.50;13.00;;;;;15.12;100.00;100155.69;5055597;28;45256;-80
2021/11/04 02:01:01;;;;;;;;;14.25;13.50;;;;;14.95;100.00;100168.78;5057600;28;45989;-80
2021/11/04 02:03:38;;;;;;;;;14.25;13.50;;;;;15.05;100.00;100165.25;5037861;28;45382;-80
2021/11/04 02:06:19;;;;;;;;;9.75;7.75;;;;;15.04;100.00;100168.88;5054490;28;45240;-81
2021/11/04 02:09:09;;;;;;;;;14.75;13.00;;;;;15.04;100.00;100169.72;5045757;28;45419;-80
2021/11/04 02:11:44;;;;;;;;;18.75;12.00;;;;;15.04;100.00;100161.75;5043804;28;45445;-80
2021/11/04 02:14:21;;;;;;;;;15.50;12.50;;;;;14.98;100.00;100168.50;5036298;28;45514;-80
2021/11/04 02:16:47;;;;;;;;;19.00;13.00;;;;;14.81;100.00;100174.56;5047488;28;45593;-80
2021/11/04 02:19:16;;;;;;;;;17.75;13.50;;;;;14.81;100.00;100171.91;5045656;28;45552;-80
2021/11/04 02:21:54;;;;;;;;;18.75;14.50;;;;;14.90;100.00;100171.03;5059348;28;46553;-80
2021/11/04 02:24:31;;;;;;;;;19.75;15.25;;;;;14.90;100.00;100178.19;5056788;28;45687;-80
2021/11/04 02:26:59;;;;;;;;;15.00;15.00;;;;;14.89;100.00;100176.50;5053858;28;45230;-80
2021/11/04 02:29:25;;;;;;;;;14.50;13.50;;;;;15.13;100.00;100184.78;5058807;28;45406;-80
2021/11/04 02:31:50;;;;;;;;;16.50;14.75;;;;;15.09;100.00;100180.78;5051106;28;45438;-80
2021/11/04 02:34:16;;;;;;;;;16.75;14.00;;;;;15.08;100.00;100181.75;5044782;28;45463;-80
2021/11/04 02:36:44;;;;;;;;;23.00;18.00;;;;;15.01;100.00;100182.50;5029872;28;45426;-80
2021/11/04 02:39:11;;;;;;;;;16.50;15.25;;;;;15.05;100.00;100182.03;5060572;28;45474;-80
2021/11/04 02:41:37;;;;;;;;;13.25;13.25;;;;;14.85;100.00;100180.41;5025826;28;47394;-80
2021/11/04 02:44:08;;;;;;;;;18.75;13.00;;;;;14.76;100.00;100168.00;5050289;28;45760;-80
2021/11/04 02:46:33;;;;;;;;;17.00;13.75;;;;;14.84;100.00;100184.91;5058817;28;45205;-80
2021/11/04 02:48:59;;;;;;;;;18.25;13.75;;;;;14.72;100.00;100190.53;5056541;28;45715;-80
2021/11/04 02:51:24;;;;;;;;;17.75;14.00;;;;;14.81;100.00;100189.69;5051072;28;46470;-80
2021/11/04 02:53:50;;;;;;;;;17.50;12.75;;;;;14.93;100.00;100189.34;5056043;28;45165;-79
2021/11/04 02:56:15;;;;;;;;;22.25;16.25;;;;;14.96;100.00;100199.69;5047623;28;45257;-79
2021/11/04 02:58:41;;;;;;;;;21.25;17.00;;;;;14.85;100.00;100194.53;5058836;28;45463;-79
2021/11/04 03:01:06;;;;;;;;;19.75;14.50;;;;;14.92;100.00;100200.16;5062074;28;45260;-79
2021/11/04 03:03:34;;;;;;;;;16.50;14.00;;;;;15.05;100.00;100205.13;5061486;28;45316;-79
2021/11/04 03:05:59;;;;;;;;;19.00;17.75;;;;;15.03;100.00;100205.25;5062238;28;45440;-79
2021/11/04 03:08:25;;;;;;;;;15.50;13.25;;;;;14.98;100.00;100204.88;5053023;28;45391;-79
2021/11/04 03:10:54;;;;;;;;;14.00;13.75;;;;;14.98;100.00;100200.41;5054815;28;45340;-79
2021/11/04 03:13:20;;;;;;;;;19.50;15.25;;;;;14.85;100.00;100199.88;5064161;28;45257;-79
2021/11/04 03:15:50;;;;;;;;;22.25;17.25;;;;;14.88;100.00;100198.75;5063850;28;45138;-78
2021/11/04 03:18:16;;;;;;;;;27.25;17.75;;;;;14.85;100.00;100205.19;5038326;28;45439;-79
2021/11/04 03:20:43;;;;;;;;;23.00;17.00;;;;;14.71;100.00;100200.34;5051302;28;45448;-79
2021/11/04 03:23:09;;;;;;;;;21.25;16.75;;;;;14.61;100.00;100199.50;5057047;28;45242;-80
2021/11/04 03:25:35;;;;;;;;;17.00;16.75;;;;;14.77;100.00;100205.06;5058619;28;45344;-79
2021/11/04 03:28:02;;;;;;;;;20.25;17.00;;;;;14.76;100.00;100199.88;5061986;28;45507;-79
2021/11/04 03:30:34;;;;;;;;;19.75;17.75;;;;;14.97;100.00;100201.38;5041076;28;48471;-80
2021/11/04 03:33:01;;;;;;;;;22.50;18.50;;;;;15.02;100.00;100205.44;5050185;28;45606;-80
2021/11/04 03:35:31;;;;;;;;;15.25;15.25;;;;;15.18;100.00;100208.31;5047101;28;45232;-79
2021/11/04 03:37:58;;;;;;;;;25.25;18.50;;;;;15.22;100.00;100201.69;5031150;28;45424;-80
2021/11/04 03:40:26;;;;;;;;;22.00;17.25;;;;;15.26;100.00;100201.28;5051723;28;45270;-80
2021/11/04 03:42:53;;;;;;;;;18.50;17.25;;;;;15.18;100.00;100209.16;5061485;28;45290;-80
2021/11/04 03:45:19;;;;;;;;;24.00;17.00;;;;;15.42;100.00;100210.44;5061033;28;45430;-79
2021/11/04 03:47:46;;;;;;;;;22.50;15.50;;;;;15.41;100.00;100209.59;5059474;28;45423;-80
2021/11/04 03:50:13;;;;;;;;;24.50;17.00;;;;;15.42;100.00;100216.59;5031595;28;47424;-80
2021/11/04 03:52:43;;;;;;;;;20.50;18.00;;;;;15.43;100.00;100217.44;5054853;28;45719;-80
2021/11/04 03:55:11;;;;;;;;;23.00;18.25;;;;;15.43;100.00;100218.28;5051094;28;45492;-80
2021/11/04 03:57:39;;;;;;;;;19.00;16.00;;;;;15.30;100.00;100223.91;5071861;28;46737;-79
2021/11/04 04:00:10;;;;;;;;;20.25;15.00;;;;;15.35;100.00;100226.16;5042001;28;46312;-80
2021/11/04 04:02:36;;;;;;;;;19.75;18.00;;;;;15.35;100.00;100220.84;5060255;28;45450;-80
2021/11/04 04:05:03;;;;;;;;;14.75;14.00;;;;;15.38;100.00;100220.56;5048417;28;45356;-80
2021/11/04 04:07:29;;;;;;;;;18.50;17.50;;;;;18.81;99.51;100224.16;5029221;28;45550;-80
2021/11/04 04:09:56;;;;;;;;;19.25;15.75;;;;;19.40;88.01;100212.13;5039788;28;48749;-80
2021/11/04 04:12:21;;;;;;;;;16.50;14.00;;;;;19.53;86.05;100218.81;5043501;28;46092;-80
2021/11/04 04:14:47;;;;;;;;;18.75;15.50;;;;;19.51;84.82;100218.13;5038833;28;45321;-80
2021/11/04 04:17:13;;;;;;;;;23.50;17.50;;;;;19.45;84.06;100211.59;5058763;28;45408;-80
2021/11/04 04:19:38;;;;;;;;;22.50;16.00;;;;;19.51;83.60;100228.84;5042314;28;47040;-80
2021/11/04 04:22:04;;;;;;;;;17.00;14.25;;;;;19.06;82.89;100227.63;5046686;28;45340;-80
2021/11/04 04:24:30;;;;;;;;;18.25;18.00;;;;;18.81;85.29;100218.81;5051343;28;45390;-80
2021/11/04 04:26:56;;;;;;;;;18.50;15.75;;;;;18.64;86.92;100228.69;5041990;28;45478;-80
2021/11/04 04:29:22;;;;;;;;;17.25;13.75;;;;;18.61;87.69;100218.31;5062693;28;45355;-80
2021/11/04 04:31:47;;;;;;;;;20.50;14.25;;;;;18.72;88.61;100229.69;5042628;28;45708;-79
2021/11/04 04:34:12;;;;;;;;;15.00;15.00;;;;;18.62;87.94;100230.69;5044225;28;45349;-79
2021/11/04 04:36:38;;;;;;;;;18.50;15.00;;;;;18.68;87.72;100237.19;5061211;28;45254;-79
2021/11/04 04:39:04;;;;;;;;;17.75;16.50;;;;;18.29;91.13;100245.84;5057102;28;45429;-80
2021/11/04 04:41:30;;;;;;;;;22.00;14.00;;;;;17.95;92.53;100248.59;5048778;28;45312;-80
2021/11/04 04:43:55;;;;;;;;;17.00;17.00;;;;;17.28;99.66;100256.66;5045873;28;45528;-80
2021/11/04 04:46:21;;;;;;;;;18.00;16.25;;;;;17.28;99.82;100257.50;5034382;28;45716;-80
2021/11/04 04:48:47;;;;;;;;;20.25;17.50;;;;;17.03;100.00;100255.66;5054202;28;46143;-79
2021/11/04 04:51:14;;;;;;;;;20.75;18.25;;;;;16.38;100.00;100269.28;5060309;28;45557;-79
2021/11/04 04:53:39;;;;;;;;;19.75;14.25;;;;;15.83;100.00;100262.38;5060559;28;45461;-79
2021/11/04 04:56:05;;;;;;;;;28.50;20.00;;;;;15.99;100.00;100262.56;5046824;28;45304;-80
2021/11/04 04:58:31;;;;;;;;;14.50;14.00;;;;;16.40;100.00;100258.47;5049043;28;46109;-79
2021/11/04 05:00:56;;;;;;;;;21.00;17.75;;;;;16.11;100.00;100256.03;5055385;28;45392;-79
2021/11/04 05:03:21;;;;;;;;;25.75;18.50;;;;;16.13;100.00;100259.34;5032562;28;45451;-79
2021/11/04 05:05:47;;;;;;;;;29.25;17.25;;;;;15.98;100.00;100263.53;5060697;28;45562;-79
2021/11/04 05:08:12;;;;;;;;;23.50;15.50;;;;;15.94;100.00;100249.66;5058969;28;46911;-79
2021/11/04 05:10:38;;;;;;;;;20.75;18.00;;;;;15.87;100.00;100250.44;5059848;28;45182;-79
2021/11/04 05:13:03;;;;;;;;;21.50;17.00;;;;;15.96;100.00;100260.19;5069570;28;45191;-79
2021/11/04 05:15:29;;;;;;;;;20.50;18.50;;;;;15.93;100.00;100255.97;5049984;28;45210;-78
2021/11/04 05:17:54;;;;;;;;;25.00;18.50;;;;;15.90;100.00;100258.13;5052507;28;46227;-79
2021/11/04 05:20:20;;;;;;;;;21.75;18.25;;;;;15.94;100.00;100262.16;5059890;28;45316;-79
2021/11/04 05:22:46;;;;;;;;;19.75;17.00;;;;;15.88;100.00;100265.41;5049699;28;45307;-79
2021/11/04 05:25:11;;;;;;;;;22.75;18.25;;;;;16.07;100.00;100268.81;5056853;28;45516;-79
2021/11/04 05:27:37;;;;;;;;;22.75;20.50;;;;;16.73;100.00;100267.63;5042167;28;47325;-78
2021/11/04 05:30:04;;;;;;;;;21.75;18.75;;;;;15.60;100.00;100285.88;5044101;28;45773;-78
2021/11/04 05:32:30;;;;;;;;;24.75;22.00;;;;;15.58;100.00;100280.69;5056826;28;45380;-79
2021/11/04 05:34:55;;;;;;;;;18.75;17.75;;;;;15.32;100.00;100279.66;5058466;28;45338;-79
2021/11/04 05:37:20;;;;;;;;;24.75;19.50;;;;;15.44;100.00;100282.97;5027350;28;47387;-79
2021/11/04 05:39:46;;;;;;;;;23.25;17.50;;;;;15.42;100.00;100291.09;5055783;28;45229;-79
2021/11/04 05:42:11;;;;;;;;;20.50;18.75;;;;;15.65;100.00;100288.94;5041375;28;45479;-79
2021/11/04 05:44:37;;;;;;;;;24.25;20.00;;;;;15.56;100.00;100285.34;5041407;28;45584;-79
2021/11/04 05:47:05;;;;;;;;;19.75;16.50;;;;;15.82;100.00;100290.00;5056722;28;45517;-79
2021/11/04 05:49:31;;;;;;;;;18.75;16.25;;;;;15.79;100.00;100283.13;5054686;28;45565;-79
2021/11/04 05:51:57;;;;;;;;;23.50;21.75;;;;;15.80;100.00;100273.31;5059629;28;45371;-79
2021/11/04 05:54:22;;;;;;;;;23.25;22.50;;;;;15.92;100.00;100288.94;5059678;28;45427;-79
2021/11/04 05:56:48;;;;;;;;;19.75;16.25;;;;;15.94;100.00;100291.44;5058696;28;45619;-79
2021/11/04 05:59:14;;;;;;;;;25.00;21.00;;;;;16.04;100.00;100290.41;5058925;28;45412;-79
2021/11/04 06:01:39;;;;;;;;;18.50;16.00;;;;;15.97;100.00;100292.00;5058932;28;45490;-79
2021/11/04 06:04:04;;;;;;;;;19.50;19.00;;;;;15.97;100.00;100292.00;5051873;28;45419;-79
2021/11/04 06:06:30;;;;;;;;;22.00;18.00;;;;;15.96;100.00;100294.81;5055595;28;45350;-79
2021/11/04 06:08:55;;;;;;;;;20.00;18.00;;;;;15.73;100.00;100293.53;5051939;28;45434;-79
2021/11/04 06:11:21;;;;;;;;;20.50;16.50;;;;;15.69;100.00;100303.63;5045070;28;45538;-79
2021/11/04 06:13:46;;;;;;;;;24.00;16.00;;;;;15.56;100.00;100308.47;5064791;28;44827;-79
2021/11/04 06:16:14;;;;;;;;;19.75;18.25;;;;;15.52;100.00;100310.53;5064319;28;46659;-79
2021/11/04 06:18:41;;;;;;;;;24.50;20.00;;;;;15.43;100.00;100299.91;5058146;28;45620;-77
2021/11/04 06:21:08;;;;;;;;;21.00;16.50;;;;;16.68;100.00;100312.56;5060107;28;45264;-79
2021/11/04 06:23:33;;;;;;;;;25.50;17.25;;;;;16.19;100.00;100314.72;5036149;28;45568;-79
2021/11/04 06:25:59;;;;;;;;;22.75;18.75;;;;;16.27;100.00;100320.13;5040504;28;46218;-79
2021/11/04 06:28:24;;;;;;;;;19.00;19.00;;;;;16.23;100.00;100317.91;5065267;27;45410;-79
2021/11/04 06:30:50;;;;;;;;;27.00;17.75;;;;;16.21;100.00;100328.72;5061286;28;45398;-79
2021/11/04 06:33:15;;;;;;;;;26.50;22.50;;;;;16.30;100.00;100321.63;5059823;28;45415;-79
2021/11/04 06:35:40;;;;;;;;;23.25;19.50;;;;;16.30;100.00;100330.47;5062708;28;45432;-79
2021/11/04 06:38:06;;;;;;;;;22.25;18.50;;;;;16.92;100.00;100322.63;5058293;28;45475;-79
2021/11/04 06:40:31;;;;;;;;;13.50;8.00;;;;;18.13;100.00;100322.47;5039372;28;45496;-79
2021/11/04 06:42:57;;;;;;;;;22.75;17.25;;;;;17.33;100.00;100326.41;5062563;28;45273;-79
2021/11/04 06:45:23;;;;;;;;;23.75;19.75;;;;;16.85;100.00;100335.69;5062424;28;45951;-79
2021/11/04 06:47:51;;;;;;;;;23.50;15.50;;;;;16.80;100.00;100332.66;5061032;28;45463;-79
2021/11/04 06:50:19;;;;;;;;;14.00;13.50;;;;;16.86;100.00;100336.53;5044299;28;45238;-79
2021/11/04 06:53:08;;;;;;;;;23.25;17.25;;;;;18.65;100.00;100340.03;5061894;28;45316;-79
2021/11/04 06:55:36;;;;;;;;;21.75;17.00;;;;;18.73;100.00;100323.13;5058282;28;45339;-79
2021/11/04 06:58:05;;;;;;;;;20.00;18.50;;;;;18.55;100.00;100341.13;5057983;28;45695;-79
2021/11/04 07:00:33;;;;;;;;;23.75;15.50;;;;;18.26;100.00;100339.72;5058123;28;45515;-79
2021/11/04 07:03:13;;;;;;;;;18.75;16.00;;;;;18.38;100.00;100336.75;5044288;28;45641;-79
2021/11/04 07:05:41;;;;;;;;;19.00;16.50;;;;;18.03;100.00;100351.19;5060969;28;45482;-79
2021/11/04 07:08:06;;;;;;;;;22.50;18.00;;;;;18.17;100.00;100342.53;5059678;28;45309;-79
2021/11/04 07:10:34;;;;;;;;;16.75;13.75;;;;;18.18;100.00;100346.88;5060246;28;45489;-79
2021/11/04 07:12:59;;;;;;;;;16.25;13.75;;;;;17.76;100.00;100361.06;5036167;28;45270;-79
2021/11/04 07:15:25;;;;;;;;;14.50;12.25;;;;;17.89;100.00;100364.13;5054764;28;45937;-79
2021/11/04 07:17:51;;;;;;;;;16.25;14.25;;;;;17.80;100.00;100362.41;5067523;28;45331;-79
2021/11/04 07:20:18;;;;;;;;;21.75;13.50;;;;;18.03;100.00;100372.56;5067488;28;45253;-79
2021/11/04 07:22:50;;;;;;;;;18.75;16.00;;;;;18.58;100.00;100370.22;5063972;28;45900;-80
2021/11/04 07:25:19;;;;;;;;;16.00;11.00;;;;;18.88;100.00;100374.13;5067929;28;45499;-80
2021/11/04 07:28:15;;;;;;;;;12.75;12.25;;;;;18.85;100.00;100380.63;5041679;28;45769;-80
2021/11/04 07:30:42;;;;;;;;;14.75;12.75;;;;;18.84;100.00;100376.31;5059124;28;45845;-80
2021/11/04 07:33:08;;;;;;;;;13.25;12.00;;;;;18.99;100.00;100371.97;5058977;28;45632;-80
2021/11/04 07:35:37;;;;;;;;;10.00;9.75;;;;;18.54;100.00;100377.72;5059221;28;45458;-80
2021/11/04 07:38:08;;;;;;;;;18.25;12.25;;;;;18.55;100.00;100398.13;5041310;28;45859;-80
2021/11/04 07:40:33;;;;;;;;;11.00;9.25;;;;;18.48;100.00;100407.78;5052878;28;46370;-80
2021/11/04 07:42:59;;;;;;;;;14.25;9.50;;;;;18.31;100.00;100406.06;5042637;28;45776;-80
2021/11/04 07:45:27;;;;;;;;;15.00;10.25;;;;;18.41;100.00;100412.09;5054058;28;46430;-80
2021/11/04 07:47:53;;;;;;;;;11.00;9.75;;;;;18.27;100.00;100413.56;5034253;28;45528;-80
2021/11/04 07:50:25;;;;;;;;;13.50;9.50;;;;;18.35;100.00;100415.44;5057152;28;45553;-80
2021/11/04 07:52:51;;;;;;;;;15.00;9.50;;;;;18.12;100.00;100423.19;5058731;28;45324;-80
2021/11/04 07:55:18;;;;;;;;;11.75;10.00;;;;;18.20;100.00;100417.91;5036729;28;46238;-81
2021/11/04 07:57:44;;;;;;;;;13.25;8.00;;;;;18.35;100.00;100430.63;5058586;28;45400;-80
2021/11/04 08:00:15;;;;;;;;;11.50;8.25;;;;;18.41;100.00;100432.66;5050133;28;45504;-80
2021/11/04 08:02:41;;;;;;;;;12.00;9.00;;;;;18.53;100.00;100423.34;5058376;28;45552;-80
2021/11/04 08:05:11;;;;;;;;;17.25;11.50;;;;;18.91;100.00;100435.34;5059329;28;46504;-81
2021/11/04 08:07:38;;;;;;;;;8.50;7.50;;;;;19.06;100.00;100431.84;5039449;28;45699;-80
2021/11/04 08:10:05;;;;;;;;;14.00;11.25;;;;;18.99;100.00;100432.69;5039800;28;45396;-79
2021/11/04 08:12:33;;;;;;;;;20.25;10.50;;;;;18.50;100.00;100437.88;5052969;28;45466;-80
2021/11/04 08:15:00;;;;;;;;;13.50;8.25;;;;;18.96;100.00;100439.19;5068329;28;46080;-81
2021/11/04 08:17:25;;;;;;;;;11.50;9.00;;;;;18.92;100.00;100445.06;5042773;28;45441;-80
2021/11/04 08:19:51;;;;;;;;;12.00;10.25;;;;;19.04;100.00;100443.72;5062976;28;45392;-80
2021/11/04 08:22:16;;;;;;;;;9.75;8.75;;;;;18.61;100.00;100456.34;5064685;28;45300;-80
2021/11/04 08:24:42;;;;;;;;;12.25;8.00;;;;;18.96;100.00;100446.38;5044913;28;47050;-80
2021/11/04 08:27:08;;;;;;;;;13.75;9.00;;;;;19.00;100.00;100447.75;5046548;28;45726;-80
2021/11/04 08:29:33;;;;;;;;;11.50;7.25;;;;;19.16;100.00;100439.72;5046447;28;45253;-80
2021/11/04 08:31:58;;;;;;;;;8.50;6.00;;;;;18.98;100.00;100457.78;5041990;28;45251;-80
2021/11/04 08:34:24;;;;;;;;;10.25;6.75;;;;;18.60;100.00;100460.00;5023252;28;47307;-80
2021/11/04 08:36:49;;;;;;;;;9.50;8.00;;;;;17.82;100.00;100467.28;5023058;28;45231;-80
2021/11/04 08:39:15;;;;;;;;;9.50;9.50;;;;;17.87;100.00;100472.13;5040856;28;45171;-80
2021/11/04 08:41:42;;;;;;;;;7.25;7.00;;;;;17.93;100.00;100471.53;5022825;28;45800;-80
2021/11/04 08:44:08;;;;;;;;;9.50;6.00;;;;;17.83;100.00;100484.16;5041153;28;46418;-80
2021/11/04 08:46:34;;;;;;;;;11.50;5.50;;;;;17.82;100.00;100475.28;5040760;28;45324;-80
2021/11/04 08:49:00;;;;;;;;;6.00;4.25;;;;;17.80;100.00;100487.97;5022960;28;45429;-80
2021/11/04 08:51:25;;;;;;;;;8.25;7.50;;;;;17.75;100.00;100479.59;5040597;28;45510;-80
2021/11/04 08:53:51;;;;;;;;;17.50;8.50;;;;;17.88;100.00;100489.84;5040744;28;45611;-80
2021/11/04 08:56:16;;;;;;;;;9.00;7.25;;;;;18.02;100.00;100488.44;5027876;28;45320;-80
2021/11/04 08:58:41;;;;;;;;;5.75;4.00;;;;;18.40;100.00;100493.31;5064684;28;45197;-80
2021/11/04 09:01:07;;;;;;;;;3.00;3.00;;;;;18.50;100.00;100487.84;5044570;28;45446;-80
2021/11/04 09:03:33;;;;;;;;;5.75;5.00;;;;;18.48;100.00;100489.88;5042708;28;48095;-80
2021/11/04 09:06:00;;;;;;;;;4.00;3.00;;;;;18.27;100.00;100480.41;5060653;28;45214;-81
2021/11/04 09:08:26;;;;;;;;;5.50;3.00;;;;;18.31;100.00;100491.59;5060943;28;45236;-81
2021/11/04 09:10:52;;;;;;;;;6.75;5.50;;;;;18.45;100.00;100496.34;5060331;28;45232;-80
2021/11/04 09:13:17;;;;;;;;;5.25;4.00;;;;;18.57;100.00;100504.97;5043415;28;48016;-80
2021/11/04 09:15:43;;;;;;;;;10.00;6.00;;;;;18.62;100.00;100510.66;5060756;28;45438;-80
2021/11/04 09:18:08;;;;;;;;;5.75;4.00;;;;;18.95;100.00;100514.28;5042456;28;45305;-81
2021/11/04 09:20:34;;;;;;;;;6.75;5.25;;;;;19.04;100.00;100513.31;5060920;28;45360;-80
2021/11/04 09:23:00;;;;;;;;;5.00;4.00;;;;;19.25;100.00;100511.00;5060617;28;45434;-80
2021/11/04 09:25:26;;;;;;;;;4.50;4.50;;;;;19.55;100.00;100514.94;5042351;28;45718;-80
2021/11/04 09:27:56;;;;;;;;;6.50;5.50;;;;;19.32;100.00;100516.53;5057346;28;45704;-80
2021/11/04 09:30:22;;;;;;;;;4.75;4.25;;;;;19.47;100.00;100520.25;5040720;28;45296;-80
2021/11/04 09:32:48;;;;;;;;;7.50;6.00;;;;;19.64;100.00;100515.75;5040299;28;45411;-80
2021/11/04 09:35:15;;;;;;;;;7.00;6.00;;;;;19.82;100.00;100512.91;5042216;28;45698;-80
2021/11/04 09:37:42;;;;;;;;;5.50;5.25;;;;;19.72;100.00;100519.28;5043589;28;45665;-80
2021/11/04 09:40:08;;;;;;;;;10.25;5.25;;;;;19.54;100.00;100521.28;5040882;28;45354;-80
2021/11/04 09:42:34;;;;;;;;;7.00;5.00;;;;;19.57;100.00;100523.66;5038240;28;46708;-80
2021/11/04 09:45:01;;;;;;;;;4.00;4.00;;;;;19.56;100.00;100521.13;5030086;28;45319;-78
2021/11/04 09:47:28;;;;;;;;;4.00;4.00;;;;;19.65;100.00;100523.66;5009601;28;45350;-80
2021/11/04 09:49:56;;;;;;;;;14.50;6.00;;;;;19.71;100.00;100536.34;5010084;28;45823;-80
2021/11/04 09:52:33;;;;;;;;;9.25;5.25;;;;;20.01;100.00;100536.69;5033404;28;47262;-80
2021/11/04 09:54:58;;;;;;;;;6.25;5.00;;;;;20.10;96.77;100525.78;5035095;28;45581;-80
2021/11/04 09:57:27;;;;;;;;;9.50;7.00;;;;;20.44;97.59;100535.44;5019493;28;45348;-80
2021/11/04 09:59:56;;;;;;;;;9.00;5.00;;;;;20.17;95.08;100539.34;5017312;28;45562;-80
2021/11/04 10:02:25;;;;;;;;;5.50;4.00;;;;;19.98;93.58;100540.53;5043184;28;45281;-80
2021/11/04 10:04:51;;;;;;;;;4.00;4.00;;;;;20.06;93.55;100545.03;5039445;28;45661;-80
2021/11/04 10:07:18;;;;;;;;;4.75;4.00;;;;;20.08;94.23;100545.72;5038273;28;45443;-81
2021/11/04 10:10:01;;;;;;;;;6.00;3.50;;;;;20.33;92.43;100539.28;5022268;28;45523;-81
2021/11/04 10:12:27;;;;;;;;;4.00;4.00;;;;;20.32;91.88;100547.50;5022841;28;47490;-81
2021/11/04 10:14:54;;;;;;;;;6.25;5.25;;;;;20.45;94.82;100548.69;5044053;28;45212;-80
2021/11/04 10:17:38;;;;;;;;;7.00;4.00;;;;;20.84;92.73;100546.03;5040218;28;45467;-81
2021/11/04 10:20:27;;;;;;;;;5.25;4.25;;;;;21.42;88.71;100543.88;5020640;28;45573;-81
2021/11/04 10:23:01;;;;;;;;;9.25;5.75;;;;;21.83;85.10;100560.53;5021073;28;47382;-79
2021/11/04 10:25:28;;;;;;;;;6.50;5.00;;;;;21.67;86.00;100558.00;5042553;28;45476;-80
2021/11/04 10:27:53;;;;;;;;;5.00;3.50;;;;;21.76;84.19;100555.03;5040934;28;45582;-81
2021/11/04 10:30:38;;;;;;;;;8.50;6.75;;;;;21.67;82.85;100563.38;5023438;28;45600;-80
2021/11/04 10:33:20;;;;;;;;;9.00;6.00;;;;;21.62;82.75;100561.19;5040163;28;45444;-81
2021/11/04 10:36:19;;;;;;;;;8.25;7.25;;;;;21.51;83.08;100558.94;5045310;28;45778;-81
2021/11/04 10:38:49;;;;;;;;;7.25;6.00;;;;;21.53;84.74;100555.06;5038302;28;45173;-81
2021/11/04 10:41:31;;;;;;;;;6.25;5.75;;;;;22.06;83.09;100545.22;5023287;28;45558;-81
2021/11/04 10:44:21;;;;;;;;;4.50;3.75;;;;;22.27;83.44;100561.50;5037251;28;46529;-81
2021/11/04 10:46:53;;;;;;;;;2.50;2.50;;;;;22.54;80.48;100561.88;5040809;28;45632;-80
2021/11/04 10:49:20;;;;;;;;;8.00;4.75;;;;;22.52;77.41;100569.31;5023549;28;45388;-80
2021/11/04 10:51:55;;;;;;;;;4.25;4.25;;;;;22.85;76.29;100564.44;5040712;28;45426;-81
2021/11/04 10:54:21;;;;;;;;;9.00;4.75;;;;;22.90;74.38;100573.59;5018995;28;47150;-79
2021/11/04 10:56:51;;;;;;;;;5.50;5.50;;;;;23.09;74.59;100558.72;5018367;28;45623;-82
2021/11/04 10:59:19;;;;;;;;;4.50;3.75;;;;;22.84;72.93;100571.66;5025211;28;45432;-80
2021/11/04 11:01:50;;;;;;;;;4.75;4.50;;;;;22.90;73.60;100562.81;5022368;28;45412;-81
2021/11/04 11:04:17;;;;;;;;;5.00;3.00;;;;;22.97;74.30;100569.13;5039955;28;45352;-81
2021/11/04 11:06:49;;;;;;;;;6.00;4.00;;;;;22.90;71.40;100565.53;5014060;28;46485;-81
2021/11/04 11:09:17;;;;;;;;;7.00;5.50;;;;;22.34;72.96;100564.28;5022577;28;45385;-81